Spartansburg, Pennsylvania
Current Conditions -  °F | °C
As of 3:53 AM on Wednesday 22 Oct 2014 (Local Time) from KGKJ Reporting Station
Overcast Overcast  
Wind Chill: 39°   Ceiling: 400
Heat Index: 45°   Visibility: 10mi
Dew Point: 42°   Wind: 13mph
Humidity: 90%   Direction: 20°NNE
Pressure: 30.08"   Gusts: 21mph
Location:  41.82°N, 79.68°W
Report Text: KGKJ 220753Z AUTO 02011G18KT 10SM OVC004 07/06 A3008 RMK AO2 SLP190 T00720056 TSNO
Loading
Personal Weather Stations






























Interactive Weather Map
Tropical Storm Tracking
New forecast layout! Learn more

10-Day Weather Forecast

Advertisements
Track Severe Weather on mobile